Terminal Aerodrome Forecast
Issued by NWS Greer, SC

Home | Current Version | Previous Version | Text Only | Print | Product List | Glossary On
Versions: 1 2 3 4 5 6 7 8 9 10 11 12 13 14 15 16 17 18 19 20 21 22 23 24 25 26 27
000
FTUS42 KGSP 230843 AAA
TAFCLT
TAF AMD
KCLT 230843Z 2309/2406 15004KT 5SM -SHRA BR OVC007
     FM231600 19004KT 5SM -SHRA BR VCTS OVC008CB
     FM232000 06005KT 4SM -SHRA OVC009
     FM240200 06004KT 5SM BR VCSH OVC003=

USA.gov is the U.S. government's official web portal to all federal, state and local government web resources and services.